Nearby METAR Reports

 

KOGD - Ogden, Utah, USA
Distance from station: NNW 6mi, 10km
Updated: Mon, 27-May-2024 2:53pm MDT
Clear
Clear
 Wind from varies
Wind: varies 6 mph, 9 km/h
Temperature: 79°F, 26°C
Dew Point: 30°F, -1°C
Humidity: 17%
Barometer: 30.15 inHg, 1021 hPa
Clouds: Clear
Visibility: 10 miles, 16 km
2024/05/27 20:53 KOGD 272053Z VRB05KT 10SM CLR 26/M01 A3015 RMK AO2 SLP164 T02611006 56012
KSLC - Salt Lake City, Utah, USA
Distance from station: S 24mi, 39km
Updated: Mon, 27-May-2024 2:54pm MDT
Few Clouds
Few Clouds
 Wind from NNW
Wind: NNW 8 mph, 13 km/h, Gust: 17 mph, 28 km/h
Temperature: 79°F, 26°C
Dew Point: 30°F, -1°C
Humidity: 17%
Barometer: 30.13 inHg, 1020.3 hPa
Clouds: Few Clouds
Visibility: 10 miles, 16 km
Cloud details: Few Clouds 9500 ft
2024/05/27 20:54 KSLC 272054Z 33007G15KT 10SM FEW095 26/M01 A3013 RMK AO2 SLP160 T02561006 56014 $
 
KBMC - Brigham City, Utah, USA
Distance from station: N 30mi, 49km
Updated: Mon, 27-May-2024 3:15pm MDT
Clear
Clear
 Wind from calm
Wind: Calm
Temperature: 75°F, 24°C
Dew Point: 21°F, -6°C
Humidity: 13%
Barometer: 30.15 inHg, 1021 hPa
Clouds: Clear
Visibility: 10 miles, 16 km
2024/05/27 21:15 KBMC 272115Z AUTO 00000KT 10SM CLR 24/M06 A3015 RMK AO1 T02361059
KU42 - Salt Lake Muni, Utah, USA
Distance from station: S 35mi, 56km
Updated: Mon, 27-May-2024 3:15pm MDT
Clear
Clear
 Wind from NNW
Wind: NNW 9 mph, 15 km/h
Temperature: 77°F, 25°C
Dew Point: 32°F, 0°C
Humidity: 19%
Barometer: 30.16 inHg, 1021.3 hPa
Clouds: Clear
Visibility: 10 miles, 16 km
2024/05/27 21:15 KU42 272115Z AUTO 33008KT 10SM CLR 25/00 A3016 RMK AO1 T02510001
 
KTVY - Tooele, Utah, USA
Distance from station: SSW 40mi, 64km
Updated: Mon, 27-May-2024 3:15pm MDT
Clear
Clear
 Wind from NNE
Wind: NNE 5 mph, 7 km/h
Temperature: 73°F, 23°C
Dew Point: 34°F, 1°C
Humidity: 23%
Barometer: 30.15 inHg, 1021 hPa
Clouds: Clear
Visibility: 10 miles, 16 km
2024/05/27 21:15 KTVY 272115Z AUTO 02004KT 10SM CLR 23/01 A3015 RMK AO2
KLGU - Logan, Utah, USA
Distance from station: N 46mi, 75km
Updated: Mon, 27-May-2024 2:51pm MDT
Clear
Clear
 Wind from calm
Wind: Calm
Temperature: 72°F, 22°C
Dew Point: 30°F, -1°C
Humidity: 22%
Barometer: 30.16 inHg, 1021.3 hPa
Clouds: Clear
Visibility: 10 miles, 16 km
2024/05/27 20:51 KLGU 272051Z AUTO 00000KT 10SM CLR 22/M01 A3016 RMK AO2 SLP182 T02221006 58014
 
KEVW - Evanston, Wyoming, USA
Distance from station: ENE 50mi, 80km
Updated: Mon, 27-May-2024 2:53pm MDT
Clear
Clear
 Wind from WSW
Wind: WSW 15 mph, 24 km/h, Gust: 23 mph, 37 km/h
Temperature: 68°F, 20°C
Dew Point: 27°F, -3°C
Humidity: 21%
Barometer: 30.27 inHg, 1025.1 hPa
Clouds: Clear
Visibility: 10 miles, 16 km
2024/05/27 20:53 KEVW 272053Z AUTO 25013G20KT 10SM CLR 20/M03 A3027 RMK AO2 SLP179 T02001033 56007